Warning: A non-numeric value encountered in /home/portan24/public_html/weather28/metar/wsMetarTxt.php on line 608

Northport NY Webcam more information Northport NY Webcam


Visit our other weather sites:

Template documentation
and downloads

And another site



Nearby METAR Reports


Warning: A non-numeric value encountered in /home/portan24/public_html/weather28/metar/wsMetarTxt.php on line 608

Warning: A non-numeric value encountered in /home/portan24/public_html/weather28/metar/wsMetarTxt.php on line 608

Warning: A non-numeric value encountered in /home/portan24/public_html/weather28/metar/wsMetarTxt.php on line 608

Warning: A non-numeric value encountered in /home/portan24/public_html/weather28/metar/wsMetarTxt.php on line 608
   
EBBR - Brussels International Airport, Belgium
Distance from station: W 9 mi
Updated: Jan 17 2019 6:50 pm
Partly Cloudy  
Partly Cloudy  
   Wind: West 8.1 mph
Wind: West 8.1 mph
Temperature: 33.8°F
Wind Chill: 26.6°F
Dew Point: 32°F
Humidity: 93%
Barometer: 30 inHg
Clouds: Partly Cloudy
Visibility: More than 6 mi
Cloud details: Partly Cloudy 823 m
EBBR 172350Z 26007KT 9999 SCT027 01/00 Q1016 NOSIG
EBBE - Beauvechain (Bevekom), Belgium
Distance from station: SSE 10 mi
Updated: Jan 17 2019 7:13 pm
Few Clouds  
Few Clouds  
   Wind: WSW 6.9 mph
Wind: WSW 6.9 mph
Temperature: 33.8°F
Wind Chill: 28.4°F
Dew Point: 32°F
Humidity: 93%
Barometer: 30 inHg
Clouds: Few Clouds
Visibility: More than 6 mi
Cloud details: Few Clouds 213 m
EBBE 180013Z AUTO 25006KT 9999 FEW007/// 01/00 Q1016 BLU
EBDT - Schaffen, Belgium
Distance from station: ENE 18 mi
Updated: Jan 17 2019 7:03 pm
Rain, Mostly Cloudy  
Rain, Mostly Cloudy  
   Wind: West 9.2 mph
Wind: West 9.2 mph
Temperature: 33.8°F
Wind Chill: 26.6°F
Dew Point: 33.8°F
Humidity: 100%
Barometer: 29.97 inHg
Clouds: Mostly Cloudy
Visibility: 4 mi
Cloud details: Few Clouds 427 m,
Partly Cloudy 1219 m,
Mostly Cloudy 1829 m
EBDT 180003Z AUTO 26008KT 6000 RA FEW014/// SCT040/// BKN060/// 01/01 Q1015 WHT
EBAW - Antwerp/Deurne, Belgium
Distance from station: NNW 23 mi
Updated: Jan 17 2019 6:50 pm
Clear  
Clear  
   Wind: West 5.8 mph
Wind: West 5.8 mph
Temperature: 35.6°F
Wind Chill: 30.2°F
Dew Point: 33.8°F
Humidity: 93%
Barometer: 30 inHg
Visibility: More than 6 mi
Cloud details: Clear m
EBAW 172350Z AUTO 27005KT CAVOK 02/01 Q1016
EBCI - Charleroi/Gosselies, Belgium
Distance from station: SSW 32 mi
Updated: Jan 17 2019 6:50 pm
Mostly Cloudy  
Mostly Cloudy  
   Wind: West 5.8 mph
Wind: West 5.8 mph
Temperature: 33.8°F
Wind Chill: 28.4°F
Dew Point: 32°F
Humidity: 93%
Barometer: 30 inHg
Clouds: Mostly Cloudy
Visibility: More than 6 mi
Cloud details: Mostly Cloudy 122 m
EBCI 172350Z 27005KT 9999 BKN004 01/M00 Q1016 NOSIG
EBLG - Bierset/Liege, Belgium
Distance from station: ESE 38 mi
Updated: Jan 17 2019 6:50 pm
Mostly Cloudy  
Mostly Cloudy  
   Wind: West 11.5 mph
Wind: West 11.5 mph
Temperature: 33.8°F
Wind Chill: 24.8°F
Dew Point: 32°F
Humidity: 93%
Barometer: 29.97 inHg
Clouds: Mostly Cloudy
Visibility: 6 mi
Cloud details: Mostly Cloudy 91 m
EBLG 172350Z 28010KT 9000 BKN003 01/M00 Q1015 TEMPO -SN BKN002

Script developed by  Saratoga-weather.org Adapted for the template by  Weerstation Leuven

You find our weather info also at:

Weather Underground

AWEKAS

Citizen Weather Observer Program (CWOP)

Equipment we use:

Weather-station
Davis VP2

Davis VP2